sensor_id;sensor_type;location;lat;lon;timestamp;P1;durP1;ratioP1;P2;durP2;ratioP2
44664;SDS011;30382;48.802;9.388;2023-02-12T00:03:41;27.20;;;17.47;;
44664;SDS011;30382;48.802;9.388;2023-02-12T00:07:23;31.80;;;25.17;;
44664;SDS011;30382;48.802;9.388;2023-02-12T00:22:10;26.63;;;19.60;;
44664;SDS011;30382;48.802;9.388;2023-02-12T00:41:16;27.60;;;19.40;;
44664;SDS011;30382;48.802;9.388;2023-02-12T01:04:20;28.27;;;18.83;;
44664;SDS011;30382;48.802;9.388;2023-02-12T01:07:05;25.37;;;18.73;;
44664;SDS011;30382;48.802;9.388;2023-02-12T01:09:49;25.87;;;18.63;;
44664;SDS011;30382;48.802;9.388;2023-02-12T01:12:34;25.60;;;18.23;;
44664;SDS011;30382;48.802;9.388;2023-02-12T01:15:18;25.40;;;17.73;;
44664;SDS011;30382;48.802;9.388;2023-02-12T01:18:03;24.33;;;19.57;;
44664;SDS011;30382;48.802;9.388;2023-02-12T01:20:47;20.93;;;17.93;;
44664;SDS011;30382;48.802;9.388;2023-02-12T01:23:31;20.90;;;17.00;;
44664;SDS011;30382;48.802;9.388;2023-02-12T01:26:17;26.93;;;17.70;;
44664;SDS011;30382;48.802;9.388;2023-02-12T01:29:03;24.73;;;18.67;;
44664;SDS011;30382;48.802;9.388;2023-02-12T01:31:47;21.90;;;17.70;;
44664;SDS011;30382;48.802;9.388;2023-02-12T01:34:32;22.70;;;17.80;;
44664;SDS011;30382;48.802;9.388;2023-02-12T01:37:16;24.87;;;18.07;;
44664;SDS011;30382;48.802;9.388;2023-02-12T01:40:00;22.60;;;18.00;;
44664;SDS011;30382;48.802;9.388;2023-02-12T01:42:45;22.93;;;17.97;;
44664;SDS011;30382;48.802;9.388;2023-02-12T01:48:21;26.27;;;18.27;;
44664;SDS011;30382;48.802;9.388;2023-02-12T01:51:06;23.90;;;18.13;;
44664;SDS011;30382;48.802;9.388;2023-02-12T01:53:53;31.50;;;19.13;;
44664;SDS011;30382;48.802;9.388;2023-02-12T01:56:38;23.27;;;17.60;;
44664;SDS011;30382;48.802;9.388;2023-02-12T01:59:23;26.70;;;19.43;;
44664;SDS011;30382;48.802;9.388;2023-02-12T02:02:08;26.07;;;18.87;;
44664;SDS011;30382;48.802;9.388;2023-02-12T02:04:55;22.23;;;17.17;;
44664;SDS011;30382;48.802;9.388;2023-02-12T02:07:40;25.73;;;18.03;;
44664;SDS011;30382;48.802;9.388;2023-02-12T02:10:28;23.43;;;18.67;;
44664;SDS011;30382;48.802;9.388;2023-02-12T02:13:12;19.87;;;16.33;;
44664;SDS011;30382;48.802;9.388;2023-02-12T02:16:19;24.03;;;17.40;;
44664;SDS011;30382;48.802;9.388;2023-02-12T02:19:08;21.90;;;18.27;;
44664;SDS011;30382;48.802;9.388;2023-02-12T02:36:45;25.23;;;19.97;;
44664;SDS011;30382;48.802;9.388;2023-02-12T02:39:36;23.23;;;18.67;;
44664;SDS011;30382;48.802;9.388;2023-02-12T02:42:34;27.90;;;20.63;;
44664;SDS011;30382;48.802;9.388;2023-02-12T02:45:29;23.90;;;19.07;;
44664;SDS011;30382;48.802;9.388;2023-02-12T02:48:17;28.90;;;20.50;;
44664;SDS011;30382;48.802;9.388;2023-02-12T02:51:04;24.40;;;18.77;;
44664;SDS011;30382;48.802;9.388;2023-02-12T02:54:10;25.90;;;20.37;;
44664;SDS011;30382;48.802;9.388;2023-02-12T02:56:57;25.20;;;18.97;;
44664;SDS011;30382;48.802;9.388;2023-02-12T02:59:47;25.40;;;18.67;;
44664;SDS011;30382;48.802;9.388;2023-02-12T03:02:34;23.07;;;19.27;;
44664;SDS011;30382;48.802;9.388;2023-02-12T03:05:25;25.93;;;19.23;;
44664;SDS011;30382;48.802;9.388;2023-02-12T03:11:03;24.80;;;18.50;;
44664;SDS011;30382;48.802;9.388;2023-02-12T03:13:49;27.57;;;19.53;;
44664;SDS011;30382;48.802;9.388;2023-02-12T03:16:38;27.67;;;20.47;;
44664;SDS011;30382;48.802;9.388;2023-02-12T03:19:24;23.60;;;19.00;;
44664;SDS011;30382;48.802;9.388;2023-02-12T03:22:20;30.30;;;21.43;;
44664;SDS011;30382;48.802;9.388;2023-02-12T03:25:13;26.60;;;20.63;;
44664;SDS011;30382;48.802;9.388;2023-02-12T03:28:00;28.40;;;20.37;;
44664;SDS011;30382;48.802;9.388;2023-02-12T03:36:50;24.13;;;19.13;;
44664;SDS011;30382;48.802;9.388;2023-02-12T03:39:53;26.90;;;19.67;;
44664;SDS011;30382;48.802;9.388;2023-02-12T03:48:26;28.70;;;19.73;;
44664;SDS011;30382;48.802;9.388;2023-02-12T03:51:54;28.33;;;21.17;;
44664;SDS011;30382;48.802;9.388;2023-02-12T03:54:19;26.07;;;19.80;;
44664;SDS011;30382;48.802;9.388;2023-02-12T03:57:08;28.10;;;21.03;;
44664;SDS011;30382;48.802;9.388;2023-02-12T03:59:53;24.90;;;20.07;;
44664;SDS011;30382;48.802;9.388;2023-02-12T04:02:38;24.33;;;20.60;;
44664;SDS011;30382;48.802;9.388;2023-02-12T04:05:24;28.40;;;20.80;;
44664;SDS011;30382;48.802;9.388;2023-02-12T04:08:08;29.20;;;22.00;;
44664;SDS011;30382;48.802;9.388;2023-02-12T04:10:57;27.93;;;22.53;;
44664;SDS011;30382;48.802;9.388;2023-02-12T04:13:47;29.90;;;21.73;;
44664;SDS011;30382;48.802;9.388;2023-02-12T04:16:38;26.90;;;20.63;;
44664;SDS011;30382;48.802;9.388;2023-02-12T04:19:36;29.10;;;21.47;;
44664;SDS011;30382;48.802;9.388;2023-02-12T04:25:21;30.80;;;22.30;;
44664;SDS011;30382;48.802;9.388;2023-02-12T04:30:57;29.00;;;22.40;;
44664;SDS011;30382;48.802;9.388;2023-02-12T04:33:46;28.70;;;22.97;;
44664;SDS011;30382;48.802;9.388;2023-02-12T04:36:33;30.43;;;22.80;;
44664;SDS011;30382;48.802;9.388;2023-02-12T04:39:20;40.83;;;25.63;;
44664;SDS011;30382;48.802;9.388;2023-02-12T04:42:05;36.63;;;26.17;;
44664;SDS011;30382;48.802;9.388;2023-02-12T04:44:50;31.40;;;25.17;;
44664;SDS011;30382;48.802;9.388;2023-02-12T04:47:34;29.50;;;22.77;;
44664;SDS011;30382;48.802;9.388;2023-02-12T04:50:19;32.37;;;24.40;;
44664;SDS011;30382;48.802;9.388;2023-02-12T04:53:03;34.23;;;25.33;;
44664;SDS011;30382;48.802;9.388;2023-02-12T04:55:48;37.00;;;25.57;;
44664;SDS011;30382;48.802;9.388;2023-02-12T04:58:33;30.90;;;23.40;;
44664;SDS011;30382;48.802;9.388;2023-02-12T05:01:17;31.67;;;22.87;;
44664;SDS011;30382;48.802;9.388;2023-02-12T05:04:02;35.63;;;25.13;;
44664;SDS011;30382;48.802;9.388;2023-02-12T05:06:47;30.70;;;24.10;;
44664;SDS011;30382;48.802;9.388;2023-02-12T05:09:31;30.13;;;23.70;;
44664;SDS011;30382;48.802;9.388;2023-02-12T05:12:15;32.00;;;24.97;;
44664;SDS011;30382;48.802;9.388;2023-02-12T05:15:00;27.00;;;21.80;;
44664;SDS011;30382;48.802;9.388;2023-02-12T05:17:44;31.00;;;23.60;;
44664;SDS011;30382;48.802;9.388;2023-02-12T05:20:29;29.53;;;23.40;;
44664;SDS011;30382;48.802;9.388;2023-02-12T05:23:13;30.57;;;21.83;;
44664;SDS011;30382;48.802;9.388;2023-02-12T05:25:58;30.87;;;22.50;;
44664;SDS011;30382;48.802;9.388;2023-02-12T05:28:43;31.67;;;22.90;;
44664;SDS011;30382;48.802;9.388;2023-02-12T05:31:28;30.97;;;23.57;;
44664;SDS011;30382;48.802;9.388;2023-02-12T05:34:12;33.73;;;25.50;;
44664;SDS011;30382;48.802;9.388;2023-02-12T05:36:57;29.43;;;23.00;;
44664;SDS011;30382;48.802;9.388;2023-02-12T05:39:41;32.60;;;24.00;;
44664;SDS011;30382;48.802;9.388;2023-02-12T05:42:25;29.10;;;21.77;;
44664;SDS011;30382;48.802;9.388;2023-02-12T05:45:09;27.20;;;21.83;;
44664;SDS011;30382;48.802;9.388;2023-02-12T05:47:54;27.67;;;23.07;;
44664;SDS011;30382;48.802;9.388;2023-02-12T05:50:39;29.07;;;22.80;;
44664;SDS011;30382;48.802;9.388;2023-02-12T05:53:25;31.20;;;21.37;;
44664;SDS011;30382;48.802;9.388;2023-02-12T05:58:57;29.53;;;22.10;;
44664;SDS011;30382;48.802;9.388;2023-02-12T06:01:42;30.80;;;22.30;;
44664;SDS011;30382;48.802;9.388;2023-02-12T06:04:27;29.40;;;22.77;;
44664;SDS011;30382;48.802;9.388;2023-02-12T06:07:12;30.43;;;23.17;;
44664;SDS011;30382;48.802;9.388;2023-02-12T06:09:56;31.27;;;22.93;;
44664;SDS011;30382;48.802;9.388;2023-02-12T06:12:40;31.27;;;23.57;;
44664;SDS011;30382;48.802;9.388;2023-02-12T06:15:24;30.57;;;23.67;;
44664;SDS011;30382;48.802;9.388;2023-02-12T06:18:09;29.07;;;22.50;;
44664;SDS011;30382;48.802;9.388;2023-02-12T06:20:53;32.57;;;23.20;;
44664;SDS011;30382;48.802;9.388;2023-02-12T06:23:37;30.80;;;20.87;;
44664;SDS011;30382;48.802;9.388;2023-02-12T06:26:22;30.47;;;23.00;;
44664;SDS011;30382;48.802;9.388;2023-02-12T06:29:07;29.90;;;23.03;;
44664;SDS011;30382;48.802;9.388;2023-02-12T06:31:52;30.90;;;22.67;;
44664;SDS011;30382;48.802;9.388;2023-02-12T06:34:36;26.83;;;22.00;;
44664;SDS011;30382;48.802;9.388;2023-02-12T06:37:20;35.30;;;22.77;;
44664;SDS011;30382;48.802;9.388;2023-02-12T06:40:05;29.30;;;23.93;;
44664;SDS011;30382;48.802;9.388;2023-02-12T06:42:49;27.13;;;22.30;;
44664;SDS011;30382;48.802;9.388;2023-02-12T06:45:34;37.70;;;25.20;;
44664;SDS011;30382;48.802;9.388;2023-02-12T06:48:18;34.77;;;25.87;;
44664;SDS011;30382;48.802;9.388;2023-02-12T06:51:06;31.73;;;23.87;;
44664;SDS011;30382;48.802;9.388;2023-02-12T06:53:52;35.60;;;25.50;;
44664;SDS011;30382;48.802;9.388;2023-02-12T06:56:36;33.60;;;23.87;;
44664;SDS011;30382;48.802;9.388;2023-02-12T06:59:21;33.90;;;25.00;;
44664;SDS011;30382;48.802;9.388;2023-02-12T07:02:05;28.83;;;23.70;;
44664;SDS011;30382;48.802;9.388;2023-02-12T07:20:04;30.43;;;24.47;;
44664;SDS011;30382;48.802;9.388;2023-02-12T08:21:40;38.10;;;28.63;;
44664;SDS011;30382;48.802;9.388;2023-02-12T08:37:06;35.53;;;27.60;;
44664;SDS011;30382;48.802;9.388;2023-02-12T08:44:25;38.23;;;29.90;;
44664;SDS011;30382;48.802;9.388;2023-02-12T08:59:29;42.17;;;30.20;;
44664;SDS011;30382;48.802;9.388;2023-02-12T10:06:21;25.07;;;19.23;;
44664;SDS011;30382;48.802;9.388;2023-02-12T10:43:27;15.70;;;10.80;;
44664;SDS011;30382;48.802;9.388;2023-02-12T10:46:35;16.07;;;9.33;;
44664;SDS011;30382;48.802;9.388;2023-02-12T11:09:18;11.33;;;6.27;;
44664;SDS011;30382;48.802;9.388;2023-02-12T11:17:13;9.70;;;7.70;;
44664;SDS011;30382;48.802;9.388;2023-02-12T11:24:37;17.90;;;8.67;;
44664;SDS011;30382;48.802;9.388;2023-02-12T11:31:41;12.70;;;7.10;;
44664;SDS011;30382;48.802;9.388;2023-02-12T11:42:34;12.87;;;6.47;;
44664;SDS011;30382;48.802;9.388;2023-02-12T11:46:26;10.57;;;5.67;;
44664;SDS011;30382;48.802;9.388;2023-02-12T11:50:26;18.67;;;7.10;;
44664;SDS011;30382;48.802;9.388;2023-02-12T11:53:57;7.40;;;6.03;;
44664;SDS011;30382;48.802;9.388;2023-02-12T12:15:15;10.67;;;5.60;;
44664;SDS011;30382;48.802;9.388;2023-02-12T12:19:02;17.93;;;7.60;;
44664;SDS011;30382;48.802;9.388;2023-02-12T12:30:21;11.50;;;5.20;;
44664;SDS011;30382;48.802;9.388;2023-02-12T12:40:36;7.50;;;5.67;;
44664;SDS011;30382;48.802;9.388;2023-02-12T13:16:57;6.50;;;3.00;;
44664;SDS011;30382;48.802;9.388;2023-02-12T13:26:52;6.33;;;4.03;;
44664;SDS011;30382;48.802;9.388;2023-02-12T13:29:43;5.83;;;3.00;;
44664;SDS011;30382;48.802;9.388;2023-02-12T13:39:36;3.77;;;3.40;;
44664;SDS011;30382;48.802;9.388;2023-02-12T14:03:48;2.63;;;2.43;;
44664;SDS011;30382;48.802;9.388;2023-02-12T14:18:41;3.20;;;2.60;;
44664;SDS011;30382;48.802;9.388;2023-02-12T14:35:41;2.50;;;2.10;;
44664;SDS011;30382;48.802;9.388;2023-02-12T15:00:41;4.20;;;3.23;;
44664;SDS011;30382;48.802;9.388;2023-02-12T15:06:42;2.93;;;2.50;;
44664;SDS011;30382;48.802;9.388;2023-02-12T15:15:52;3.67;;;2.67;;
44664;SDS011;30382;48.802;9.388;2023-02-12T15:18:59;2.67;;;1.97;;
44664;SDS011;30382;48.802;9.388;2023-02-12T15:22:01;2.70;;;2.47;;
44664;SDS011;30382;48.802;9.388;2023-02-12T15:24:46;3.37;;;2.63;;
44664;SDS011;30382;48.802;9.388;2023-02-12T15:27:30;3.37;;;2.30;;
44664;SDS011;30382;48.802;9.388;2023-02-12T15:30:42;5.40;;;3.03;;
44664;SDS011;30382;48.802;9.388;2023-02-12T15:33:31;2.47;;;2.27;;
44664;SDS011;30382;48.802;9.388;2023-02-12T15:36:20;3.73;;;2.63;;
44664;SDS011;30382;48.802;9.388;2023-02-12T15:39:07;5.03;;;2.80;;
44664;SDS011;30382;48.802;9.388;2023-02-12T15:41:52;5.17;;;2.70;;
44664;SDS011;30382;48.802;9.388;2023-02-12T15:44:36;2.90;;;1.70;;
44664;SDS011;30382;48.802;9.388;2023-02-12T15:47:21;2.60;;;2.40;;
44664;SDS011;30382;48.802;9.388;2023-02-12T15:50:13;2.53;;;2.33;;
44664;SDS011;30382;48.802;9.388;2023-02-12T15:52:57;6.03;;;2.50;;
44664;SDS011;30382;48.802;9.388;2023-02-12T15:55:43;2.90;;;2.20;;
44664;SDS011;30382;48.802;9.388;2023-02-12T16:01:16;7.50;;;2.70;;
44664;SDS011;30382;48.802;9.388;2023-02-12T16:04:02;2.60;;;2.40;;
44664;SDS011;30382;48.802;9.388;2023-02-12T16:06:47;5.30;;;2.90;;
44664;SDS011;30382;48.802;9.388;2023-02-12T16:09:33;2.73;;;2.13;;
44664;SDS011;30382;48.802;9.388;2023-02-12T16:12:19;2.63;;;2.43;;
44664;SDS011;30382;48.802;9.388;2023-02-12T16:15:04;5.90;;;2.80;;
44664;SDS011;30382;48.802;9.388;2023-02-12T16:17:49;4.90;;;4.50;;
44664;SDS011;30382;48.802;9.388;2023-02-12T16:20:33;5.30;;;3.87;;
44664;SDS011;30382;48.802;9.388;2023-02-12T16:23:18;3.33;;;3.03;;
44664;SDS011;30382;48.802;9.388;2023-02-12T16:26:04;4.03;;;3.60;;
44664;SDS011;30382;48.802;9.388;2023-02-12T16:28:50;5.80;;;4.30;;
44664;SDS011;30382;48.802;9.388;2023-02-12T16:31:35;5.63;;;3.53;;
44664;SDS011;30382;48.802;9.388;2023-02-12T16:34:30;3.70;;;3.27;;
44664;SDS011;30382;48.802;9.388;2023-02-12T16:37:39;4.33;;;3.40;;
44664;SDS011;30382;48.802;9.388;2023-02-12T16:40:25;4.33;;;2.60;;
44664;SDS011;30382;48.802;9.388;2023-02-12T16:43:24;5.53;;;3.67;;
44664;SDS011;30382;48.802;9.388;2023-02-12T16:46:09;6.13;;;3.40;;
44664;SDS011;30382;48.802;9.388;2023-02-12T16:48:55;5.90;;;4.83;;
44664;SDS011;30382;48.802;9.388;2023-02-12T16:51:40;7.20;;;5.30;;
44664;SDS011;30382;48.802;9.388;2023-02-12T16:57:09;12.63;;;5.70;;
44664;SDS011;30382;48.802;9.388;2023-02-12T16:59:54;5.97;;;4.37;;
44664;SDS011;30382;48.802;9.388;2023-02-12T17:02:38;7.83;;;4.40;;
44664;SDS011;30382;48.802;9.388;2023-02-12T17:05:23;9.43;;;6.20;;
44664;SDS011;30382;48.802;9.388;2023-02-12T17:08:18;6.13;;;5.30;;
44664;SDS011;30382;48.802;9.388;2023-02-12T17:11:03;8.83;;;6.53;;
44664;SDS011;30382;48.802;9.388;2023-02-12T17:13:48;7.97;;;6.70;;
44664;SDS011;30382;48.802;9.388;2023-02-12T17:16:33;9.17;;;6.73;;
44664;SDS011;30382;48.802;9.388;2023-02-12T17:19:17;9.10;;;6.00;;
44664;SDS011;30382;48.802;9.388;2023-02-12T17:22:01;9.00;;;7.00;;
44664;SDS011;30382;48.802;9.388;2023-02-12T17:24:47;7.83;;;6.60;;
44664;SDS011;30382;48.802;9.388;2023-02-12T17:27:39;11.47;;;6.80;;
44664;SDS011;30382;48.802;9.388;2023-02-12T17:30:23;9.37;;;8.30;;
44664;SDS011;30382;48.802;9.388;2023-02-12T17:33:09;10.83;;;9.37;;
44664;SDS011;30382;48.802;9.388;2023-02-12T17:35:53;12.77;;;9.33;;
44664;SDS011;30382;48.802;9.388;2023-02-12T17:38:38;13.40;;;9.30;;
44664;SDS011;30382;48.802;9.388;2023-02-12T17:41:22;8.87;;;7.60;;
44664;SDS011;30382;48.802;9.388;2023-02-12T17:44:07;9.33;;;7.27;;
44664;SDS011;30382;48.802;9.388;2023-02-12T17:46:52;9.50;;;7.30;;
44664;SDS011;30382;48.802;9.388;2023-02-12T17:49:40;9.50;;;8.53;;
44664;SDS011;30382;48.802;9.388;2023-02-12T17:52:26;9.20;;;7.33;;
44664;SDS011;30382;48.802;9.388;2023-02-12T17:55:11;13.87;;;10.70;;
44664;SDS011;30382;48.802;9.388;2023-02-12T17:57:57;13.03;;;7.97;;
44664;SDS011;30382;48.802;9.388;2023-02-12T18:00:41;12.93;;;9.57;;
44664;SDS011;30382;48.802;9.388;2023-02-12T18:03:26;11.13;;;9.00;;
44664;SDS011;30382;48.802;9.388;2023-02-12T18:06:11;10.40;;;7.50;;
44664;SDS011;30382;48.802;9.388;2023-02-12T18:08:57;9.70;;;7.00;;
44664;SDS011;30382;48.802;9.388;2023-02-12T18:11:42;8.50;;;7.10;;
44664;SDS011;30382;48.802;9.388;2023-02-12T18:14:26;9.77;;;7.03;;
44664;SDS011;30382;48.802;9.388;2023-02-12T18:26:59;11.33;;;8.13;;
44664;SDS011;30382;48.802;9.388;2023-02-12T18:30:10;13.90;;;9.57;;
44664;SDS011;30382;48.802;9.388;2023-02-12T18:37:45;9.60;;;7.80;;
44664;SDS011;30382;48.802;9.388;2023-02-12T18:41:05;12.10;;;7.77;;
44664;SDS011;30382;48.802;9.388;2023-02-12T19:06:03;9.50;;;7.70;;
44664;SDS011;30382;48.802;9.388;2023-02-12T19:13:43;10.27;;;8.37;;
44664;SDS011;30382;48.802;9.388;2023-02-12T19:16:33;10.40;;;8.30;;
44664;SDS011;30382;48.802;9.388;2023-02-12T19:27:03;11.40;;;7.93;;
44664;SDS011;30382;48.802;9.388;2023-02-12T19:30:06;13.07;;;8.03;;
44664;SDS011;30382;48.802;9.388;2023-02-12T19:55:06;13.90;;;9.67;;
44664;SDS011;30382;48.802;9.388;2023-02-12T19:58:11;11.77;;;8.67;;
44664;SDS011;30382;48.802;9.388;2023-02-12T20:04:53;10.77;;;8.13;;
44664;SDS011;30382;48.802;9.388;2023-02-12T20:07:50;11.53;;;8.10;;
44664;SDS011;30382;48.802;9.388;2023-02-12T20:11:08;8.60;;;6.77;;
44664;SDS011;30382;48.802;9.388;2023-02-12T20:18:13;14.07;;;10.03;;
44664;SDS011;30382;48.802;9.388;2023-02-12T20:20:58;15.03;;;9.17;;
44664;SDS011;30382;48.802;9.388;2023-02-12T20:23:42;15.13;;;9.00;;
44664;SDS011;30382;48.802;9.388;2023-02-12T20:26:27;15.57;;;9.00;;
44664;SDS011;30382;48.802;9.388;2023-02-12T20:29:11;10.47;;;6.70;;
44664;SDS011;30382;48.802;9.388;2023-02-12T20:31:56;11.57;;;8.43;;
44664;SDS011;30382;48.802;9.388;2023-02-12T20:34:41;10.53;;;7.60;;
44664;SDS011;30382;48.802;9.388;2023-02-12T20:37:25;13.20;;;8.37;;
44664;SDS011;30382;48.802;9.388;2023-02-12T20:40:10;11.20;;;8.10;;
44664;SDS011;30382;48.802;9.388;2023-02-12T20:42:54;14.30;;;8.90;;
44664;SDS011;30382;48.802;9.388;2023-02-12T20:45:38;11.90;;;7.90;;
44664;SDS011;30382;48.802;9.388;2023-02-12T20:48:23;13.67;;;8.63;;
44664;SDS011;30382;48.802;9.388;2023-02-12T20:53:54;13.00;;;8.20;;
44664;SDS011;30382;48.802;9.388;2023-02-12T20:56:39;14.23;;;9.17;;
44664;SDS011;30382;48.802;9.388;2023-02-12T20:59:23;13.00;;;8.60;;
44664;SDS011;30382;48.802;9.388;2023-02-12T21:02:09;10.73;;;8.53;;
44664;SDS011;30382;48.802;9.388;2023-02-12T21:04:53;12.50;;;8.37;;
44664;SDS011;30382;48.802;9.388;2023-02-12T21:07:39;12.13;;;8.43;;
44664;SDS011;30382;48.802;9.388;2023-02-12T21:10:23;13.60;;;7.73;;
44664;SDS011;30382;48.802;9.388;2023-02-12T21:13:07;11.80;;;8.17;;
44664;SDS011;30382;48.802;9.388;2023-02-12T21:15:52;15.10;;;7.73;;
44664;SDS011;30382;48.802;9.388;2023-02-12T21:18:44;13.47;;;9.37;;
44664;SDS011;30382;48.802;9.388;2023-02-12T21:21:30;12.57;;;8.67;;
44664;SDS011;30382;48.802;9.388;2023-02-12T21:24:16;17.13;;;10.10;;
44664;SDS011;30382;48.802;9.388;2023-02-12T21:27:00;16.83;;;8.17;;
44664;SDS011;30382;48.802;9.388;2023-02-12T21:29:45;16.23;;;7.60;;
44664;SDS011;30382;48.802;9.388;2023-02-12T21:32:29;10.80;;;8.07;;
44664;SDS011;30382;48.802;9.388;2023-02-12T21:35:14;13.13;;;9.87;;
44664;SDS011;30382;48.802;9.388;2023-02-12T21:37:58;12.03;;;7.80;;
44664;SDS011;30382;48.802;9.388;2023-02-12T21:40:43;18.23;;;8.73;;
44664;SDS011;30382;48.802;9.388;2023-02-12T21:43:27;14.30;;;9.40;;
44664;SDS011;30382;48.802;9.388;2023-02-12T21:46:12;15.63;;;9.07;;
44664;SDS011;30382;48.802;9.388;2023-02-12T21:48:58;16.70;;;9.13;;
44664;SDS011;30382;48.802;9.388;2023-02-12T21:51:43;11.53;;;8.13;;
44664;SDS011;30382;48.802;9.388;2023-02-12T21:54:27;13.03;;;8.63;;
44664;SDS011;30382;48.802;9.388;2023-02-12T21:57:12;12.03;;;8.10;;
44664;SDS011;30382;48.802;9.388;2023-02-12T22:00:01;15.37;;;9.30;;
44664;SDS011;30382;48.802;9.388;2023-02-12T22:02:45;11.40;;;8.90;;
44664;SDS011;30382;48.802;9.388;2023-02-12T22:05:30;11.30;;;7.87;;
44664;SDS011;30382;48.802;9.388;2023-02-12T22:08:15;14.47;;;9.43;;
44664;SDS011;30382;48.802;9.388;2023-02-12T22:11:00;12.70;;;8.93;;
44664;SDS011;30382;48.802;9.388;2023-02-12T22:13:45;11.77;;;7.67;;
44664;SDS011;30382;48.802;9.388;2023-02-12T22:16:30;15.13;;;8.33;;
44664;SDS011;30382;48.802;9.388;2023-02-12T22:19:14;10.53;;;7.87;;
44664;SDS011;30382;48.802;9.388;2023-02-12T22:21:58;14.83;;;8.00;;
44664;SDS011;30382;48.802;9.388;2023-02-12T22:24:43;12.20;;;7.80;;
44664;SDS011;30382;48.802;9.388;2023-02-12T22:27:30;11.90;;;7.43;;
44664;SDS011;30382;48.802;9.388;2023-02-12T22:30:15;11.47;;;7.40;;
44664;SDS011;30382;48.802;9.388;2023-02-12T22:33:00;12.07;;;7.57;;
44664;SDS011;30382;48.802;9.388;2023-02-12T22:35:45;12.53;;;7.60;;
44664;SDS011;30382;48.802;9.388;2023-02-12T22:38:29;12.63;;;7.40;;
44664;SDS011;30382;48.802;9.388;2023-02-12T22:41:13;10.60;;;6.60;;
44664;SDS011;30382;48.802;9.388;2023-02-12T22:43:58;14.87;;;7.20;;
44664;SDS011;30382;48.802;9.388;2023-02-12T22:46:43;10.57;;;6.47;;
44664;SDS011;30382;48.802;9.388;2023-02-12T22:49:28;10.97;;;7.27;;
44664;SDS011;30382;48.802;9.388;2023-02-12T22:52:12;13.77;;;8.10;;
44664;SDS011;30382;48.802;9.388;2023-02-12T22:54:57;12.17;;;7.80;;
44664;SDS011;30382;48.802;9.388;2023-02-12T22:57:41;13.33;;;8.27;;
44664;SDS011;30382;48.802;9.388;2023-02-12T23:00:25;11.13;;;7.73;;
44664;SDS011;30382;48.802;9.388;2023-02-12T23:03:09;11.13;;;7.47;;
44664;SDS011;30382;48.802;9.388;2023-02-12T23:05:54;11.57;;;7.67;;
44664;SDS011;30382;48.802;9.388;2023-02-12T23:08:38;10.30;;;6.80;;
44664;SDS011;30382;48.802;9.388;2023-02-12T23:11:23;7.57;;;5.60;;
44664;SDS011;30382;48.802;9.388;2023-02-12T23:14:07;10.47;;;7.00;;
44664;SDS011;30382;48.802;9.388;2023-02-12T23:16:52;14.23;;;8.53;;
44664;SDS011;30382;48.802;9.388;2023-02-12T23:19:36;11.23;;;7.30;;
44664;SDS011;30382;48.802;9.388;2023-02-12T23:22:21;15.27;;;8.70;;
44664;SDS011;30382;48.802;9.388;2023-02-12T23:25:05;11.40;;;8.10;;
44664;SDS011;30382;48.802;9.388;2023-02-12T23:27:49;15.13;;;8.40;;
44664;SDS011;30382;48.802;9.388;2023-02-12T23:30:34;12.93;;;7.87;;
44664;SDS011;30382;48.802;9.388;2023-02-12T23:33:18;11.33;;;8.23;;
44664;SDS011;30382;48.802;9.388;2023-02-12T23:36:03;9.10;;;6.87;;
44664;SDS011;30382;48.802;9.388;2023-02-12T23:38:47;12.50;;;7.73;;
44664;SDS011;30382;48.802;9.388;2023-02-12T23:41:31;10.47;;;8.27;;
44664;SDS011;30382;48.802;9.388;2023-02-12T23:44:16;14.70;;;8.40;;
44664;SDS011;30382;48.802;9.388;2023-02-12T23:47:00;11.60;;;7.40;;
44664;SDS011;30382;48.802;9.388;2023-02-12T23:49:45;14.17;;;7.87;;
44664;SDS011;30382;48.802;9.388;2023-02-12T23:52:29;12.37;;;8.20;;
44664;SDS011;30382;48.802;9.388;2023-02-12T23:55:13;11.20;;;7.83;;
44664;SDS011;30382;48.802;9.388;2023-02-12T23:57:58;11.83;;;7.90;;
